sensor_id;sensor_type;location;lat;lon;timestamp;temperature;humidity
26947;DHT22;14501;52.282;10.560;2024-01-27T00:01:50;4.90;99.90
26947;DHT22;14501;52.282;10.560;2024-01-27T00:04:16;4.90;99.90
26947;DHT22;14501;52.282;10.560;2024-01-27T00:06:41;5.00;99.90
26947;DHT22;14501;52.282;10.560;2024-01-27T00:09:07;5.10;99.90
26947;DHT22;14501;52.282;10.560;2024-01-27T00:11:33;5.00;99.90
26947;DHT22;14501;52.282;10.560;2024-01-27T00:13:58;5.00;99.90
26947;DHT22;14501;52.282;10.560;2024-01-27T00:16:28;5.00;99.90
26947;DHT22;14501;52.282;10.560;2024-01-27T00:18:54;4.90;99.90
26947;DHT22;14501;52.282;10.560;2024-01-27T00:21:19;4.90;99.90
26947;DHT22;14501;52.282;10.560;2024-01-27T00:23:45;4.90;99.90
26947;DHT22;14501;52.282;10.560;2024-01-27T00:26:10;4.90;99.90
26947;DHT22;14501;52.282;10.560;2024-01-27T00:28:36;4.90;99.90
26947;DHT22;14501;52.282;10.560;2024-01-27T00:31:02;4.90;99.90
26947;DHT22;14501;52.282;10.560;2024-01-27T00:33:28;4.90;99.90
26947;DHT22;14501;52.282;10.560;2024-01-27T00:35:53;4.90;99.90
26947;DHT22;14501;52.282;10.560;2024-01-27T00:38:19;5.00;99.90
26947;DHT22;14501;52.282;10.560;2024-01-27T00:40:45;5.00;99.90
26947;DHT22;14501;52.282;10.560;2024-01-27T00:43:11;5.00;99.90
26947;DHT22;14501;52.282;10.560;2024-01-27T00:45:37;5.00;99.90
26947;DHT22;14501;52.282;10.560;2024-01-27T00:48:02;5.00;99.90
26947;DHT22;14501;52.282;10.560;2024-01-27T00:50:28;5.00;99.90
26947;DHT22;14501;52.282;10.560;2024-01-27T00:52:53;5.10;99.90
26947;DHT22;14501;52.282;10.560;2024-01-27T00:55:19;5.10;99.90
26947;DHT22;14501;52.282;10.560;2024-01-27T00:57:45;5.10;99.90
26947;DHT22;14501;52.282;10.560;2024-01-27T01:00:11;5.10;99.90
26947;DHT22;14501;52.282;10.560;2024-01-27T01:02:37;5.10;99.90
26947;DHT22;14501;52.282;10.560;2024-01-27T01:05:04;5.10;99.90
26947;DHT22;14501;52.282;10.560;2024-01-27T01:07:30;5.10;99.90
26947;DHT22;14501;52.282;10.560;2024-01-27T01:09:56;5.00;99.90
26947;DHT22;14501;52.282;10.560;2024-01-27T01:12:22;5.00;99.90
26947;DHT22;14501;52.282;10.560;2024-01-27T01:14:48;4.90;99.90
26947;DHT22;14501;52.282;10.560;2024-01-27T01:17:13;4.90;99.90
26947;DHT22;14501;52.282;10.560;2024-01-27T01:19:40;4.80;99.90
26947;DHT22;14501;52.282;10.560;2024-01-27T01:22:06;4.70;99.90
26947;DHT22;14501;52.282;10.560;2024-01-27T01:24:32;4.70;99.90
26947;DHT22;14501;52.282;10.560;2024-01-27T01:26:58;4.60;99.90
26947;DHT22;14501;52.282;10.560;2024-01-27T01:29:23;4.60;99.90
26947;DHT22;14501;52.282;10.560;2024-01-27T01:31:49;4.60;99.90
26947;DHT22;14501;52.282;10.560;2024-01-27T01:34:15;4.60;99.90
26947;DHT22;14501;52.282;10.560;2024-01-27T01:36:40;4.50;99.90
26947;DHT22;14501;52.282;10.560;2024-01-27T01:39:07;4.70;99.90
26947;DHT22;14501;52.282;10.560;2024-01-27T01:41:32;4.50;99.90
26947;DHT22;14501;52.282;10.560;2024-01-27T01:43:58;4.40;99.90
26947;DHT22;14501;52.282;10.560;2024-01-27T01:46:24;4.40;99.90
26947;DHT22;14501;52.282;10.560;2024-01-27T01:48:50;4.30;99.90
26947;DHT22;14501;52.282;10.560;2024-01-27T01:51:16;4.20;99.90
26947;DHT22;14501;52.282;10.560;2024-01-27T01:53:43;4.20;99.90
26947;DHT22;14501;52.282;10.560;2024-01-27T01:56:09;4.20;99.90
26947;DHT22;14501;52.282;10.560;2024-01-27T01:58:35;4.20;99.90
26947;DHT22;14501;52.282;10.560;2024-01-27T02:01:01;4.20;99.90
26947;DHT22;14501;52.282;10.560;2024-01-27T02:03:27;4.20;99.90
26947;DHT22;14501;52.282;10.560;2024-01-27T02:05:52;4.30;99.90
26947;DHT22;14501;52.282;10.560;2024-01-27T02:08:18;4.40;99.90
26947;DHT22;14501;52.282;10.560;2024-01-27T02:10:44;4.50;99.90
26947;DHT22;14501;52.282;10.560;2024-01-27T02:13:18;4.50;99.90
26947;DHT22;14501;52.282;10.560;2024-01-27T02:15:44;4.50;99.90
26947;DHT22;14501;52.282;10.560;2024-01-27T02:18:09;4.70;99.90
26947;DHT22;14501;52.282;10.560;2024-01-27T02:20:35;4.70;99.90
26947;DHT22;14501;52.282;10.560;2024-01-27T02:23:02;4.70;99.90
26947;DHT22;14501;52.282;10.560;2024-01-27T02:25:30;4.80;99.90
26947;DHT22;14501;52.282;10.560;2024-01-27T02:27:56;4.90;99.90
26947;DHT22;14501;52.282;10.560;2024-01-27T02:30:22;4.90;99.90
26947;DHT22;14501;52.282;10.560;2024-01-27T02:32:47;5.00;99.90
26947;DHT22;14501;52.282;10.560;2024-01-27T02:35:13;5.00;99.90
26947;DHT22;14501;52.282;10.560;2024-01-27T02:37:40;5.10;99.90
26947;DHT22;14501;52.282;10.560;2024-01-27T02:40:08;5.10;99.90
26947;DHT22;14501;52.282;10.560;2024-01-27T02:42:35;5.20;99.90
26947;DHT22;14501;52.282;10.560;2024-01-27T02:45:01;5.20;99.90
26947;DHT22;14501;52.282;10.560;2024-01-27T02:47:27;5.20;99.90
26947;DHT22;14501;52.282;10.560;2024-01-27T02:49:53;5.20;99.90
26947;DHT22;14501;52.282;10.560;2024-01-27T02:52:19;5.20;99.90
26947;DHT22;14501;52.282;10.560;2024-01-27T02:54:45;5.20;99.90
26947;DHT22;14501;52.282;10.560;2024-01-27T02:57:11;5.20;99.90
26947;DHT22;14501;52.282;10.560;2024-01-27T03:02:58;5.20;99.90
26947;DHT22;14501;52.282;10.560;2024-01-27T03:05:24;5.10;99.90
26947;DHT22;14501;52.282;10.560;2024-01-27T03:07:50;5.20;99.90
26947;DHT22;14501;52.282;10.560;2024-01-27T03:10:15;5.20;99.90
26947;DHT22;14501;52.282;10.560;2024-01-27T03:12:41;5.20;99.90
26947;DHT22;14501;52.282;10.560;2024-01-27T03:15:07;5.20;99.90
26947;DHT22;14501;52.282;10.560;2024-01-27T03:17:33;5.10;99.90
26947;DHT22;14501;52.282;10.560;2024-01-27T03:19:59;5.10;99.90
26947;DHT22;14501;52.282;10.560;2024-01-27T03:22:24;5.10;99.90
26947;DHT22;14501;52.282;10.560;2024-01-27T03:24:50;5.10;99.90
26947;DHT22;14501;52.282;10.560;2024-01-27T03:27:17;5.10;99.90
26947;DHT22;14501;52.282;10.560;2024-01-27T03:29:42;5.00;99.90
26947;DHT22;14501;52.282;10.560;2024-01-27T03:32:08;5.00;99.90
26947;DHT22;14501;52.282;10.560;2024-01-27T03:34:34;5.00;99.90
26947;DHT22;14501;52.282;10.560;2024-01-27T03:36:59;5.00;99.90
26947;DHT22;14501;52.282;10.560;2024-01-27T03:39:25;5.00;99.90
26947;DHT22;14501;52.282;10.560;2024-01-27T03:41:51;4.90;99.90
26947;DHT22;14501;52.282;10.560;2024-01-27T03:44:16;4.90;99.90
26947;DHT22;14501;52.282;10.560;2024-01-27T03:46:42;4.90;99.90
26947;DHT22;14501;52.282;10.560;2024-01-27T03:49:08;5.00;99.90
26947;DHT22;14501;52.282;10.560;2024-01-27T03:51:33;4.90;99.90
26947;DHT22;14501;52.282;10.560;2024-01-27T03:53:59;4.90;99.90
26947;DHT22;14501;52.282;10.560;2024-01-27T03:56:24;4.80;99.90
26947;DHT22;14501;52.282;10.560;2024-01-27T03:58:50;4.80;99.90
26947;DHT22;14501;52.282;10.560;2024-01-27T04:01:15;4.80;99.90
26947;DHT22;14501;52.282;10.560;2024-01-27T04:03:41;4.70;99.90
26947;DHT22;14501;52.282;10.560;2024-01-27T04:06:07;4.60;99.90
26947;DHT22;14501;52.282;10.560;2024-01-27T04:08:32;4.40;99.90
26947;DHT22;14501;52.282;10.560;2024-01-27T04:10:58;4.30;99.90
26947;DHT22;14501;52.282;10.560;2024-01-27T04:13:24;4.20;99.90
26947;DHT22;14501;52.282;10.560;2024-01-27T04:15:49;4.10;99.90
26947;DHT22;14501;52.282;10.560;2024-01-27T04:18:16;3.90;99.90
26947;DHT22;14501;52.282;10.560;2024-01-27T04:20:42;3.80;99.90
26947;DHT22;14501;52.282;10.560;2024-01-27T04:23:08;3.70;99.90
26947;DHT22;14501;52.282;10.560;2024-01-27T04:25:33;3.70;99.90
26947;DHT22;14501;52.282;10.560;2024-01-27T04:27:59;3.60;99.90
26947;DHT22;14501;52.282;10.560;2024-01-27T04:30:25;3.50;99.90
26947;DHT22;14501;52.282;10.560;2024-01-27T04:32:50;3.50;99.90
26947;DHT22;14501;52.282;10.560;2024-01-27T04:35:17;3.50;99.90
26947;DHT22;14501;52.282;10.560;2024-01-27T04:37:43;3.50;99.90
26947;DHT22;14501;52.282;10.560;2024-01-27T04:40:10;3.40;99.90
26947;DHT22;14501;52.282;10.560;2024-01-27T04:42:38;3.40;99.90
26947;DHT22;14501;52.282;10.560;2024-01-27T04:45:04;3.30;99.90
26947;DHT22;14501;52.282;10.560;2024-01-27T04:47:31;3.30;99.90
26947;DHT22;14501;52.282;10.560;2024-01-27T04:49:56;3.20;99.90
26947;DHT22;14501;52.282;10.560;2024-01-27T04:52:25;3.20;99.90
26947;DHT22;14501;52.282;10.560;2024-01-27T04:54:53;3.20;99.90
26947;DHT22;14501;52.282;10.560;2024-01-27T04:57:19;3.20;99.90
26947;DHT22;14501;52.282;10.560;2024-01-27T04:59:45;3.10;99.90
26947;DHT22;14501;52.282;10.560;2024-01-27T05:02:11;3.00;99.90
26947;DHT22;14501;52.282;10.560;2024-01-27T05:04:37;3.00;99.90
26947;DHT22;14501;52.282;10.560;2024-01-27T05:07:04;2.90;99.90
26947;DHT22;14501;52.282;10.560;2024-01-27T05:09:29;2.80;99.90
26947;DHT22;14501;52.282;10.560;2024-01-27T05:11:55;2.80;99.90
26947;DHT22;14501;52.282;10.560;2024-01-27T05:14:20;2.80;99.90
26947;DHT22;14501;52.282;10.560;2024-01-27T05:16:46;2.80;99.90
26947;DHT22;14501;52.282;10.560;2024-01-27T05:19:12;2.90;99.90
26947;DHT22;14501;52.282;10.560;2024-01-27T05:21:38;2.80;99.90
26947;DHT22;14501;52.282;10.560;2024-01-27T05:24:04;2.80;99.90
26947;DHT22;14501;52.282;10.560;2024-01-27T05:26:29;2.80;99.90
26947;DHT22;14501;52.282;10.560;2024-01-27T05:28:55;2.70;99.90
26947;DHT22;14501;52.282;10.560;2024-01-27T05:31:21;2.70;99.90
26947;DHT22;14501;52.282;10.560;2024-01-27T05:33:47;2.70;99.90
26947;DHT22;14501;52.282;10.560;2024-01-27T05:36:12;2.70;99.90
26947;DHT22;14501;52.282;10.560;2024-01-27T05:38:38;2.70;99.90
26947;DHT22;14501;52.282;10.560;2024-01-27T05:41:04;2.60;99.90
26947;DHT22;14501;52.282;10.560;2024-01-27T05:43:30;2.60;99.90
26947;DHT22;14501;52.282;10.560;2024-01-27T05:45:55;2.70;99.90
26947;DHT22;14501;52.282;10.560;2024-01-27T05:48:21;2.60;99.90
26947;DHT22;14501;52.282;10.560;2024-01-27T05:50:59;2.60;99.90
26947;DHT22;14501;52.282;10.560;2024-01-27T05:53:26;2.60;99.90
26947;DHT22;14501;52.282;10.560;2024-01-27T05:55:52;2.50;99.90
26947;DHT22;14501;52.282;10.560;2024-01-27T05:58:19;2.50;99.90
26947;DHT22;14501;52.282;10.560;2024-01-27T06:00:47;2.50;99.90
26947;DHT22;14501;52.282;10.560;2024-01-27T06:03:13;2.60;99.90
26947;DHT22;14501;52.282;10.560;2024-01-27T06:05:39;2.60;99.90
26947;DHT22;14501;52.282;10.560;2024-01-27T06:08:05;2.50;99.90
26947;DHT22;14501;52.282;10.560;2024-01-27T06:10:32;2.50;99.90
26947;DHT22;14501;52.282;10.560;2024-01-27T06:12:58;2.50;99.90
26947;DHT22;14501;52.282;10.560;2024-01-27T06:15:24;2.50;99.90
26947;DHT22;14501;52.282;10.560;2024-01-27T06:17:49;2.50;99.90
26947;DHT22;14501;52.282;10.560;2024-01-27T06:20:15;2.50;99.90
26947;DHT22;14501;52.282;10.560;2024-01-27T06:22:44;2.50;99.90
26947;DHT22;14501;52.282;10.560;2024-01-27T06:25:09;2.50;99.90
26947;DHT22;14501;52.282;10.560;2024-01-27T06:27:36;2.50;99.90
26947;DHT22;14501;52.282;10.560;2024-01-27T06:30:04;2.50;99.90
26947;DHT22;14501;52.282;10.560;2024-01-27T06:32:31;2.50;99.90
26947;DHT22;14501;52.282;10.560;2024-01-27T06:34:56;2.50;99.90
26947;DHT22;14501;52.282;10.560;2024-01-27T06:37:22;2.50;99.90
26947;DHT22;14501;52.282;10.560;2024-01-27T06:39:48;2.50;99.90
26947;DHT22;14501;52.282;10.560;2024-01-27T06:42:13;2.50;99.90
26947;DHT22;14501;52.282;10.560;2024-01-27T06:44:39;2.50;99.90
26947;DHT22;14501;52.282;10.560;2024-01-27T06:47:05;2.50;99.90
26947;DHT22;14501;52.282;10.560;2024-01-27T06:49:30;2.50;99.90
26947;DHT22;14501;52.282;10.560;2024-01-27T06:51:56;2.40;99.90
26947;DHT22;14501;52.282;10.560;2024-01-27T06:54:22;2.30;99.90
26947;DHT22;14501;52.282;10.560;2024-01-27T06:56:48;2.30;99.90
26947;DHT22;14501;52.282;10.560;2024-01-27T06:59:13;1.80;99.90
26947;DHT22;14501;52.282;10.560;2024-01-27T07:01:48;2.30;99.90
26947;DHT22;14501;52.282;10.560;2024-01-27T07:04:14;2.30;99.90
26947;DHT22;14501;52.282;10.560;2024-01-27T07:06:40;2.30;99.90
26947;DHT22;14501;52.282;10.560;2024-01-27T07:09:06;2.30;99.90
26947;DHT22;14501;52.282;10.560;2024-01-27T07:11:35;2.20;99.90
26947;DHT22;14501;52.282;10.560;2024-01-27T07:14:02;2.30;99.90
26947;DHT22;14501;52.282;10.560;2024-01-27T07:16:28;2.20;99.90
26947;DHT22;14501;52.282;10.560;2024-01-27T07:18:54;2.40;99.90
26947;DHT22;14501;52.282;10.560;2024-01-27T07:21:20;2.50;99.90
26947;DHT22;14501;52.282;10.560;2024-01-27T07:23:45;2.60;99.90
26947;DHT22;14501;52.282;10.560;2024-01-27T07:26:11;2.70;99.90
26947;DHT22;14501;52.282;10.560;2024-01-27T07:28:38;2.70;99.90
26947;DHT22;14501;52.282;10.560;2024-01-27T07:31:04;2.70;99.90
26947;DHT22;14501;52.282;10.560;2024-01-27T07:33:30;2.70;99.90
26947;DHT22;14501;52.282;10.560;2024-01-27T07:35:56;2.60;99.90
26947;DHT22;14501;52.282;10.560;2024-01-27T07:38:22;2.60;99.90
26947;DHT22;14501;52.282;10.560;2024-01-27T07:40:48;2.70;99.90
26947;DHT22;14501;52.282;10.560;2024-01-27T07:43:13;2.70;99.90
26947;DHT22;14501;52.282;10.560;2024-01-27T07:45:39;2.60;99.90
26947;DHT22;14501;52.282;10.560;2024-01-27T07:48:05;2.60;99.90
26947;DHT22;14501;52.282;10.560;2024-01-27T07:50:31;2.70;99.90
26947;DHT22;14501;52.282;10.560;2024-01-27T07:52:57;2.70;99.90
26947;DHT22;14501;52.282;10.560;2024-01-27T07:55:23;2.70;99.90
26947;DHT22;14501;52.282;10.560;2024-01-27T07:57:49;2.70;99.90
26947;DHT22;14501;52.282;10.560;2024-01-27T08:00:14;2.80;99.90
26947;DHT22;14501;52.282;10.560;2024-01-27T08:02:40;2.80;99.90
26947;DHT22;14501;52.282;10.560;2024-01-27T08:05:06;2.90;99.90
26947;DHT22;14501;52.282;10.560;2024-01-27T08:07:31;2.90;99.90
26947;DHT22;14501;52.282;10.560;2024-01-27T08:09:57;3.00;99.90
26947;DHT22;14501;52.282;10.560;2024-01-27T08:12:23;3.00;99.90
26947;DHT22;14501;52.282;10.560;2024-01-27T08:14:49;3.10;99.90
26947;DHT22;14501;52.282;10.560;2024-01-27T08:19:43;3.30;99.90
26947;DHT22;14501;52.282;10.560;2024-01-27T08:22:09;3.40;99.90
26947;DHT22;14501;52.282;10.560;2024-01-27T08:24:35;4.90;99.90
26947;DHT22;14501;52.282;10.560;2024-01-27T08:29:26;6.80;99.90
26947;DHT22;14501;52.282;10.560;2024-01-27T08:34:18;8.70;99.90
26947;DHT22;14501;52.282;10.560;2024-01-27T08:36:44;8.90;99.90
26947;DHT22;14501;52.282;10.560;2024-01-27T08:39:09;8.80;99.90
26947;DHT22;14501;52.282;10.560;2024-01-27T08:44:03;8.90;99.90
26947;DHT22;14501;52.282;10.560;2024-01-27T08:46:29;9.10;99.90
26947;DHT22;14501;52.282;10.560;2024-01-27T08:48:55;9.00;99.90
26947;DHT22;14501;52.282;10.560;2024-01-27T08:51:20;10.20;99.90
26947;DHT22;14501;52.282;10.560;2024-01-27T08:53:46;9.60;99.90
26947;DHT22;14501;52.282;10.560;2024-01-27T08:56:17;9.30;99.90
26947;DHT22;14501;52.282;10.560;2024-01-27T08:58:46;9.70;99.90
26947;DHT22;14501;52.282;10.560;2024-01-27T09:01:16;9.70;99.90
26947;DHT22;14501;52.282;10.560;2024-01-27T09:03:41;9.80;99.90
26947;DHT22;14501;52.282;10.560;2024-01-27T09:06:07;9.80;99.90
26947;DHT22;14501;52.282;10.560;2024-01-27T09:08:33;9.60;99.90
26947;DHT22;14501;52.282;10.560;2024-01-27T09:11:00;9.10;99.90
26947;DHT22;14501;52.282;10.560;2024-01-27T09:13:26;10.00;99.90
26947;DHT22;14501;52.282;10.560;2024-01-27T09:16:13;11.10;99.90
26947;DHT22;14501;52.282;10.560;2024-01-27T09:18:45;11.60;99.90
26947;DHT22;14501;52.282;10.560;2024-01-27T09:21:11;11.70;99.90
26947;DHT22;14501;52.282;10.560;2024-01-27T09:23:37;12.50;99.90
26947;DHT22;14501;52.282;10.560;2024-01-27T09:26:03;13.50;99.90
26947;DHT22;14501;52.282;10.560;2024-01-27T09:28:29;13.80;99.90
26947;DHT22;14501;52.282;10.560;2024-01-27T09:30:55;14.80;99.90
26947;DHT22;14501;52.282;10.560;2024-01-27T09:33:20;15.40;99.90
26947;DHT22;14501;52.282;10.560;2024-01-27T09:35:49;15.60;99.90
26947;DHT22;14501;52.282;10.560;2024-01-27T09:38:14;15.80;99.90
26947;DHT22;14501;52.282;10.560;2024-01-27T09:40:40;15.70;99.90
26947;DHT22;14501;52.282;10.560;2024-01-27T09:43:06;15.70;99.90
26947;DHT22;14501;52.282;10.560;2024-01-27T09:45:35;16.40;99.90
26947;DHT22;14501;52.282;10.560;2024-01-27T09:48:03;15.90;99.90
26947;DHT22;14501;52.282;10.560;2024-01-27T09:50:30;17.80;99.90
26947;DHT22;14501;52.282;10.560;2024-01-27T09:52:56;18.00;99.90
26947;DHT22;14501;52.282;10.560;2024-01-27T09:55:22;18.30;99.90
26947;DHT22;14501;52.282;10.560;2024-01-27T09:57:48;18.90;99.90
26947;DHT22;14501;52.282;10.560;2024-01-27T10:00:14;19.20;98.80
26947;DHT22;14501;52.282;10.560;2024-01-27T10:02:42;19.20;98.30
26947;DHT22;14501;52.282;10.560;2024-01-27T10:05:11;18.60;98.10
26947;DHT22;14501;52.282;10.560;2024-01-27T10:07:38;18.40;98.30
26947;DHT22;14501;52.282;10.560;2024-01-27T10:10:05;18.40;97.70
26947;DHT22;14501;52.282;10.560;2024-01-27T10:12:31;18.50;98.20
26947;DHT22;14501;52.282;10.560;2024-01-27T10:14:57;17.60;98.40
26947;DHT22;14501;52.282;10.560;2024-01-27T10:17:24;17.00;99.90
26947;DHT22;14501;52.282;10.560;2024-01-27T10:20:05;14.70;99.90
26947;DHT22;14501;52.282;10.560;2024-01-27T10:22:38;14.20;99.90
26947;DHT22;14501;52.282;10.560;2024-01-27T10:25:05;13.70;99.90
26947;DHT22;14501;52.282;10.560;2024-01-27T10:27:31;12.80;99.90
26947;DHT22;14501;52.282;10.560;2024-01-27T10:29:57;11.30;99.90
26947;DHT22;14501;52.282;10.560;2024-01-27T10:32:22;11.10;99.90
26947;DHT22;14501;52.282;10.560;2024-01-27T10:37:29;10.30;99.90
26947;DHT22;14501;52.282;10.560;2024-01-27T10:40:05;9.40;99.90
26947;DHT22;14501;52.282;10.560;2024-01-27T10:42:37;9.20;99.90
26947;DHT22;14501;52.282;10.560;2024-01-27T10:45:03;8.90;99.90
26947;DHT22;14501;52.282;10.560;2024-01-27T10:47:31;8.50;99.90
26947;DHT22;14501;52.282;10.560;2024-01-27T10:49:58;8.30;99.90
26947;DHT22;14501;52.282;10.560;2024-01-27T10:52:38;7.90;99.90
26947;DHT22;14501;52.282;10.560;2024-01-27T10:55:04;7.80;99.90
26947;DHT22;14501;52.282;10.560;2024-01-27T10:57:36;7.70;99.90
26947;DHT22;14501;52.282;10.560;2024-01-27T11:00:04;7.60;99.90
26947;DHT22;14501;52.282;10.560;2024-01-27T11:02:35;7.60;99.90
26947;DHT22;14501;52.282;10.560;2024-01-27T11:05:03;7.60;99.90
26947;DHT22;14501;52.282;10.560;2024-01-27T11:07:34;7.60;99.90
26947;DHT22;14501;52.282;10.560;2024-01-27T11:10:00;7.60;99.90
26947;DHT22;14501;52.282;10.560;2024-01-27T11:12:26;7.60;99.90
26947;DHT22;14501;52.282;10.560;2024-01-27T11:14:52;7.60;99.90
26947;DHT22;14501;52.282;10.560;2024-01-27T11:17:19;7.60;99.90
26947;DHT22;14501;52.282;10.560;2024-01-27T11:19:45;7.60;99.90
26947;DHT22;14501;52.282;10.560;2024-01-27T11:22:28;7.50;99.90
26947;DHT22;14501;52.282;10.560;2024-01-27T11:25:17;7.40;99.90
26947;DHT22;14501;52.282;10.560;2024-01-27T11:27:44;7.40;99.90
26947;DHT22;14501;52.282;10.560;2024-01-27T11:30:30;7.50;99.90
26947;DHT22;14501;52.282;10.560;2024-01-27T11:32:56;7.60;99.90
26947;DHT22;14501;52.282;10.560;2024-01-27T11:35:25;7.70;99.90
26947;DHT22;14501;52.282;10.560;2024-01-27T11:37:51;7.70;99.90
26947;DHT22;14501;52.282;10.560;2024-01-27T11:40:17;7.80;99.90
26947;DHT22;14501;52.282;10.560;2024-01-27T11:42:42;7.90;99.90
26947;DHT22;14501;52.282;10.560;2024-01-27T11:45:09;8.00;99.90
26947;DHT22;14501;52.282;10.560;2024-01-27T11:47:35;8.20;99.90
26947;DHT22;14501;52.282;10.560;2024-01-27T11:50:01;8.40;99.90
26947;DHT22;14501;52.282;10.560;2024-01-27T11:52:28;8.50;99.90
26947;DHT22;14501;52.282;10.560;2024-01-27T11:55:00;8.70;99.90
26947;DHT22;14501;52.282;10.560;2024-01-27T11:57:27;8.80;99.90
26947;DHT22;14501;52.282;10.560;2024-01-27T12:00:02;8.80;99.90
26947;DHT22;14501;52.282;10.560;2024-01-27T12:02:42;8.80;99.90
26947;DHT22;14501;52.282;10.560;2024-01-27T12:05:12;8.80;99.90
26947;DHT22;14501;52.282;10.560;2024-01-27T12:07:41;9.00;99.90
26947;DHT22;14501;52.282;10.560;2024-01-27T12:10:07;9.30;99.90
26947;DHT22;14501;52.282;10.560;2024-01-27T12:12:33;9.40;99.90
26947;DHT22;14501;52.282;10.560;2024-01-27T12:14:59;9.50;99.90
26947;DHT22;14501;52.282;10.560;2024-01-27T12:17:27;9.40;99.90
26947;DHT22;14501;52.282;10.560;2024-01-27T12:19:53;9.30;99.90
26947;DHT22;14501;52.282;10.560;2024-01-27T12:22:29;9.30;99.90
26947;DHT22;14501;52.282;10.560;2024-01-27T12:24:56;9.40;99.90
26947;DHT22;14501;52.282;10.560;2024-01-27T12:27:22;9.40;99.90
26947;DHT22;14501;52.282;10.560;2024-01-27T12:29:49;9.30;99.90
26947;DHT22;14501;52.282;10.560;2024-01-27T12:32:18;9.20;99.90
26947;DHT22;14501;52.282;10.560;2024-01-27T12:34:44;9.20;99.90
26947;DHT22;14501;52.282;10.560;2024-01-27T12:37:13;9.20;99.90
26947;DHT22;14501;52.282;10.560;2024-01-27T12:39:45;9.30;99.90
26947;DHT22;14501;52.282;10.560;2024-01-27T12:42:11;9.30;99.90
26947;DHT22;14501;52.282;10.560;2024-01-27T12:44:37;9.30;99.90
26947;DHT22;14501;52.282;10.560;2024-01-27T12:47:03;9.40;99.90
26947;DHT22;14501;52.282;10.560;2024-01-27T12:49:29;9.50;99.90
26947;DHT22;14501;52.282;10.560;2024-01-27T12:51:55;9.50;99.90
26947;DHT22;14501;52.282;10.560;2024-01-27T12:54:21;9.50;99.90
26947;DHT22;14501;52.282;10.560;2024-01-27T12:56:47;9.60;99.90
26947;DHT22;14501;52.282;10.560;2024-01-27T12:59:12;9.30;99.90
26947;DHT22;14501;52.282;10.560;2024-01-27T13:01:39;9.50;99.90
26947;DHT22;14501;52.282;10.560;2024-01-27T13:04:05;9.50;99.90
26947;DHT22;14501;52.282;10.560;2024-01-27T13:06:31;9.50;99.90
26947;DHT22;14501;52.282;10.560;2024-01-27T13:11:23;9.30;99.90
26947;DHT22;14501;52.282;10.560;2024-01-27T13:13:49;9.20;99.90
26947;DHT22;14501;52.282;10.560;2024-01-27T13:16:15;9.20;99.90
26947;DHT22;14501;52.282;10.560;2024-01-27T13:18:41;9.20;99.90
26947;DHT22;14501;52.282;10.560;2024-01-27T13:21:07;9.20;99.90
26947;DHT22;14501;52.282;10.560;2024-01-27T13:23:33;9.20;99.90
26947;DHT22;14501;52.282;10.560;2024-01-27T13:25:59;9.20;99.90
26947;DHT22;14501;52.282;10.560;2024-01-27T13:28:25;8.90;99.90
26947;DHT22;14501;52.282;10.560;2024-01-27T13:30:51;8.80;99.90
26947;DHT22;14501;52.282;10.560;2024-01-27T13:33:16;8.80;99.90
26947;DHT22;14501;52.282;10.560;2024-01-27T13:35:42;8.50;99.90
26947;DHT22;14501;52.282;10.560;2024-01-27T13:38:13;8.50;99.90
26947;DHT22;14501;52.282;10.560;2024-01-27T13:40:39;8.50;99.90
26947;DHT22;14501;52.282;10.560;2024-01-27T13:43:04;9.00;99.90
26947;DHT22;14501;52.282;10.560;2024-01-27T13:45:30;8.30;99.90
26947;DHT22;14501;52.282;10.560;2024-01-27T13:47:57;8.30;99.90
26947;DHT22;14501;52.282;10.560;2024-01-27T13:50:22;8.30;99.90
26947;DHT22;14501;52.282;10.560;2024-01-27T13:52:51;8.20;99.90
26947;DHT22;14501;52.282;10.560;2024-01-27T13:55:16;8.20;99.90
26947;DHT22;14501;52.282;10.560;2024-01-27T13:57:43;8.10;99.90
26947;DHT22;14501;52.282;10.560;2024-01-27T14:00:09;8.00;99.90
26947;DHT22;14501;52.282;10.560;2024-01-27T14:02:35;8.00;99.90
26947;DHT22;14501;52.282;10.560;2024-01-27T14:05:01;7.90;99.90
26947;DHT22;14501;52.282;10.560;2024-01-27T14:07:27;7.90;99.90
26947;DHT22;14501;52.282;10.560;2024-01-27T14:09:52;7.80;99.90
26947;DHT22;14501;52.282;10.560;2024-01-27T14:12:18;7.70;99.90
26947;DHT22;14501;52.282;10.560;2024-01-27T14:14:44;7.70;99.90
26947;DHT22;14501;52.282;10.560;2024-01-27T14:17:09;7.60;99.90
26947;DHT22;14501;52.282;10.560;2024-01-27T14:19:35;7.50;99.90
26947;DHT22;14501;52.282;10.560;2024-01-27T14:22:02;7.90;99.90
26947;DHT22;14501;52.282;10.560;2024-01-27T14:24:28;7.40;99.90
26947;DHT22;14501;52.282;10.560;2024-01-27T14:26:54;7.30;99.90
26947;DHT22;14501;52.282;10.560;2024-01-27T14:29:20;7.30;99.90
26947;DHT22;14501;52.282;10.560;2024-01-27T14:31:45;8.90;99.90
26947;DHT22;14501;52.282;10.560;2024-01-27T14:34:11;7.20;99.90
26947;DHT22;14501;52.282;10.560;2024-01-27T14:36:38;7.10;99.90
26947;DHT22;14501;52.282;10.560;2024-01-27T14:39:03;7.10;99.90
26947;DHT22;14501;52.282;10.560;2024-01-27T14:41:30;7.10;99.90
26947;DHT22;14501;52.282;10.560;2024-01-27T14:43:55;7.00;99.90
26947;DHT22;14501;52.282;10.560;2024-01-27T14:46:22;7.50;99.90
26947;DHT22;14501;52.282;10.560;2024-01-27T14:48:48;7.90;99.90
26947;DHT22;14501;52.282;10.560;2024-01-27T14:51:14;6.80;99.90
26947;DHT22;14501;52.282;10.560;2024-01-27T14:53:40;6.70;99.90
26947;DHT22;14501;52.282;10.560;2024-01-27T14:56:05;7.30;99.90
26947;DHT22;14501;52.282;10.560;2024-01-27T14:58:31;6.70;99.90
26947;DHT22;14501;52.282;10.560;2024-01-27T15:00:57;8.10;99.90
26947;DHT22;14501;52.282;10.560;2024-01-27T15:03:23;6.70;99.90
26947;DHT22;14501;52.282;10.560;2024-01-27T15:05:50;7.80;99.90
26947;DHT22;14501;52.282;10.560;2024-01-27T15:08:16;6.40;99.90
26947;DHT22;14501;52.282;10.560;2024-01-27T15:10:42;7.10;99.90
26947;DHT22;14501;52.282;10.560;2024-01-27T15:13:11;6.50;99.90
26947;DHT22;14501;52.282;10.560;2024-01-27T15:15:40;8.50;99.90
26947;DHT22;14501;52.282;10.560;2024-01-27T15:18:06;6.40;99.90
26947;DHT22;14501;52.282;10.560;2024-01-27T15:20:33;6.30;99.90
26947;DHT22;14501;52.282;10.560;2024-01-27T15:22:58;6.30;99.90
26947;DHT22;14501;52.282;10.560;2024-01-27T15:25:24;6.20;99.90
26947;DHT22;14501;52.282;10.560;2024-01-27T15:27:50;8.70;99.90
26947;DHT22;14501;52.282;10.560;2024-01-27T15:30:17;6.80;99.90
26947;DHT22;14501;52.282;10.560;2024-01-27T15:32:46;6.10;99.90
26947;DHT22;14501;52.282;10.560;2024-01-27T15:35:12;6.00;99.90
26947;DHT22;14501;52.282;10.560;2024-01-27T15:37:38;5.90;99.90
26947;DHT22;14501;52.282;10.560;2024-01-27T15:40:07;6.20;99.90
26947;DHT22;14501;52.282;10.560;2024-01-27T15:42:35;5.90;99.90
26947;DHT22;14501;52.282;10.560;2024-01-27T15:45:00;5.80;99.90